Hauptseite
METAR-TAF:

METAR-TAF

Flughäfen :

Bamako, Mali

Flughafen Bamako

Breite: 12-32N, Länge: 007-57W, Höhe: 380 m

Beobachtung

Neuester Wetterbericht von vor 39 Minuten, um 21:30 UTC
Wind 10 kt aus Nord
Temperatur 31°C
Luftfeuchtigkeit 27%
Luftdruck 1013 hPa
Sichtweite 10 km oder mehr
keine Wolken unter 1500 m und keine Kumulonimbus oder Gewitterwolken

METAR: GABS 242130Z 36010KT CAVOK 31/10 Q1013 NOSIG

Zeit: 22:09 (22:09 UTC)

Prognose

Neuester Wetterbericht von vor 4 Stunden und 59 Minuten, um 17:10 UTC
Gültige Prognose vom 24 um 18 UTC bis 25 um 24 UTC
Wind 8 kt aus Süd
Sichtweite 10 km oder mehr
keine Wolken unter 1500 m und keine Kumulonimbus oder Gewitterwolken
Übergehend zu
vom 24 um 22 UTC bis 24 um 24 UTC
Wind 10 kt aus Nord/Nordost

TAF: GABS 241710Z 2418/2524 19008KT CAVOK BECMG 2422/2424 03010KT

Wetterbeobachtungen und Prognosen von mehr als 4000 Flughäfen (METAR und TAF Bericht).

Die verfügbaren Stationen werden durch gelbe und rote Markierungen auf der Karte dargestellt.

Führen Sie die Maus auf sie, um den Namen der Station zu sehen.

Darauf klicken, um die Beobachtung von Wetterbeobachtungen und Prognosen zu sehen.

Um die Karte zu ändern : klicken Sie auf den grünen Tasten mit einem schwarzen Kreuz Zum Vergrößern, auf den grünen Button mit einem Gedankenstrich zu verkleinern, oder auf die grünen Pfeile für benachbarte Karten.


METAR-TAF: